createdAt,value
2022-12-09T00:02:06.921Z,100955.00
2022-12-09T00:04:35.562Z,100956.69
2022-12-09T00:07:03.581Z,100960.13
2022-12-09T00:09:31.494Z,100957.59
2022-12-09T00:11:59.760Z,100958.44
2022-12-09T00:14:27.599Z,100959.31
2022-12-09T00:16:55.534Z,100957.59
2022-12-09T00:19:23.854Z,100954.16
2022-12-09T00:21:51.640Z,100959.28
2022-12-09T00:24:19.509Z,100963.59
2022-12-09T00:26:47.832Z,100951.63
2022-12-09T00:29:15.775Z,100962.69
2022-12-09T00:31:44.687Z,100955.00
2022-12-09T00:34:14.197Z,100966.97
2022-12-09T00:36:42.324Z,100961.00
2022-12-09T00:39:12.704Z,100966.13
2022-12-09T00:41:44.126Z,100964.41
2022-12-09T00:44:12.766Z,100955.87
2022-12-09T00:46:41.196Z,100972.13
2022-12-09T00:49:10.506Z,100971.28
2022-12-09T00:51:41.396Z,100963.56
2022-12-09T00:54:13.201Z,100963.56
2022-12-09T00:56:40.971Z,100962.72
2022-12-09T00:59:09.460Z,100957.59
2022-12-09T01:01:37.399Z,100961.00
2022-12-09T01:04:09.003Z,100968.69
2022-12-09T01:06:37.527Z,100967.84
2022-12-09T01:09:06.089Z,100969.56
2022-12-09T01:11:34.103Z,100966.13
2022-12-09T01:14:03.744Z,100965.25
2022-12-09T01:16:34.149Z,100967.81
2022-12-09T01:19:06.973Z,100974.69
2022-12-09T01:21:36.049Z,100966.13
2022-12-09T01:24:12.544Z,100976.37
2022-12-09T01:26:40.386Z,100968.69
2022-12-09T01:29:08.623Z,100968.69
2022-12-09T01:31:36.775Z,100979.84
2022-12-09T01:34:05.166Z,100977.22
2022-12-09T01:36:33.701Z,100957.59
2022-12-09T01:39:05.173Z,100966.97
2022-12-09T01:41:35.152Z,100961.84
2022-12-09T01:44:11.717Z,100972.94
2022-12-09T01:46:40.115Z,100953.28
2022-12-09T01:49:10.878Z,100958.41
2022-12-09T01:51:40.231Z,100956.72
2022-12-09T01:54:09.724Z,100955.81
2022-12-09T01:56:41.660Z,100958.38
2022-12-09T01:59:12.938Z,100953.28
2022-12-09T02:01:45.051Z,100954.97
2022-12-09T02:04:13.687Z,100954.09
2022-12-09T02:06:42.044Z,100946.38
2022-12-09T02:09:11.133Z,100942.91
2022-12-09T02:11:48.849Z,100944.63
2022-12-09T02:14:23.817Z,100936.97
2022-12-09T02:17:05.013Z,100939.53
2022-12-09T02:19:53.128Z,100936.94
2022-12-09T02:22:27.845Z,100937.78
2022-12-09T02:25:14.978Z,100936.09
2022-12-09T02:28:02.881Z,100934.41
2022-12-09T02:30:55.643Z,100949.81
2022-12-09T02:33:40.808Z,100939.56
2022-12-09T02:36:32.064Z,100939.53
2022-12-09T02:39:00.765Z,100943.78
2022-12-09T02:41:33.076Z,100951.50
2022-12-09T02:44:16.044Z,100941.25
2022-12-09T02:46:45.803Z,100939.56
2022-12-09T02:49:15.332Z,100939.53
2022-12-09T02:51:45.048Z,100935.22
2022-12-09T02:54:17.144Z,100942.13
2022-12-09T02:56:58.549Z,100933.53
2022-12-09T02:59:28.343Z,100936.13
2022-12-09T03:02:11.233Z,100939.56
2022-12-09T03:04:42.977Z,100932.66
2022-12-09T03:07:20.013Z,100930.12
2022-12-09T03:09:58.455Z,100933.53
2022-12-09T03:12:33.688Z,100929.25
2022-12-09T03:15:04.608Z,100929.19
2022-12-09T03:17:36.446Z,100926.66
2022-12-09T03:20:11.720Z,100924.03
2022-12-09T03:22:43.342Z,100924.06
2022-12-09T03:25:21.403Z,100926.62
2022-12-09T03:27:59.739Z,100910.31
2022-12-09T03:30:28.665Z,100921.50
2022-12-09T03:32:58.831Z,100915.53
2022-12-09T03:35:35.850Z,100915.50
2022-12-09T03:38:10.917Z,100912.06
2022-12-09T03:40:40.751Z,100906.12
2022-12-09T03:43:22.117Z,100907.78
2022-12-09T03:45:55.766Z,100906.94
2022-12-09T03:48:24.928Z,100898.44
2022-12-09T03:51:12.724Z,100911.19
2022-12-09T03:53:40.831Z,100911.16
2022-12-09T03:56:31.633Z,100912.03
2022-12-09T03:59:10.619Z,100905.25
2022-12-09T04:01:41.993Z,100904.41
2022-12-09T04:04:11.316Z,100906.03
2022-12-09T04:06:39.524Z,100900.00
2022-12-09T04:09:07.930Z,100906.03
2022-12-09T04:11:36.750Z,100908.66
2022-12-09T04:14:04.904Z,100900.94
2022-12-09T04:16:33.155Z,100896.50
2022-12-09T04:19:02.287Z,100894.75
2022-12-09T04:21:30.186Z,100897.41
2022-12-09T04:23:57.946Z,100892.31
2022-12-09T04:26:27.069Z,100906.81
2022-12-09T04:28:58.015Z,100905.97
2022-12-09T04:31:26.531Z,100903.50
2022-12-09T04:33:54.414Z,100902.63
2022-12-09T04:36:22.622Z,100901.78
2022-12-09T04:38:51.737Z,100900.00
2022-12-09T04:41:19.645Z,100900.84
2022-12-09T04:43:49.249Z,100892.25
2022-12-09T04:46:19.432Z,100896.53
2022-12-09T04:48:47.694Z,100893.94
2022-12-09T04:51:17.027Z,100894.81
2022-12-09T04:53:45.767Z,100909.41
2022-12-09T04:56:19.559Z,100891.47
2022-12-09T04:58:49.387Z,100904.28
2022-12-09T05:01:26.401Z,100909.50
2022-12-09T05:03:58.719Z,100905.94
2022-12-09T05:06:27.399Z,100899.94
2022-12-09T05:08:55.809Z,100901.63
2022-12-09T05:11:25.025Z,100906.00
2022-12-09T05:13:59.753Z,100893.19
2022-12-09T05:16:28.317Z,100884.63
2022-12-09T05:18:56.593Z,100891.47
2022-12-09T05:21:24.884Z,100896.50
2022-12-09T05:23:53.540Z,100876.78
2022-12-09T05:26:23.738Z,100886.16
2022-12-09T05:28:52.585Z,100870.78
2022-12-09T05:31:23.774Z,100875.00
2022-12-09T05:33:53.190Z,100882.66
2022-12-09T05:36:27.833Z,100877.56
2022-12-09T05:38:56.596Z,100882.81
2022-12-09T05:41:25.952Z,100881.06
2022-12-09T05:43:54.282Z,100885.25
2022-12-09T05:46:22.912Z,100882.66
2022-12-09T05:48:51.849Z,100884.44
2022-12-09T05:51:29.948Z,100883.59
2022-12-09T05:54:01.995Z,100892.06
2022-12-09T05:56:30.139Z,100882.66
2022-12-09T05:58:59.503Z,100871.56
2022-12-09T06:01:27.914Z,100873.25
2022-12-09T06:04:02.119Z,100875.88
2022-12-09T06:06:32.260Z,100875.03
2022-12-09T06:09:02.229Z,100873.34
2022-12-09T06:11:32.418Z,100862.09
2022-12-09T06:14:01.548Z,100869.97
2022-12-09T06:16:29.970Z,100878.41
2022-12-09T06:18:57.995Z,100878.44
2022-12-09T06:21:27.324Z,100875.03
2022-12-09T06:23:58.544Z,100871.53
2022-12-09T06:26:29.933Z,100875.09
2022-12-09T06:28:59.811Z,100859.69
2022-12-09T06:31:29.229Z,100863.06
2022-12-09T06:33:59.128Z,100864.84
2022-12-09T06:36:30.300Z,100859.75
2022-12-09T06:39:04.501Z,100863.03
2022-12-09T06:41:41.375Z,100854.53
2022-12-09T06:44:14.815Z,100852.72
2022-12-09T06:46:51.493Z,100851.81
2022-12-09T06:49:19.923Z,100845.03
2022-12-09T06:51:48.532Z,100846.75
2022-12-09T06:54:17.295Z,100851.88
2022-12-09T06:56:45.359Z,100850.16
2022-12-09T06:59:13.700Z,100865.59
2022-12-09T07:01:41.879Z,100866.47
2022-12-09T07:04:13.903Z,100866.53
2022-12-09T07:06:47.158Z,100870.72
2022-12-09T07:09:20.802Z,100870.00
2022-12-09T07:11:49.808Z,100861.25
2022-12-09T07:14:19.178Z,100861.34
2022-12-09T07:16:48.146Z,100857.75
2022-12-09T07:19:22.444Z,100852.59
2022-12-09T07:21:51.558Z,100861.16
2022-12-09T07:24:21.226Z,100853.50
2022-12-09T07:26:50.106Z,100837.22
2022-12-09T07:29:19.412Z,100832.88
2022-12-09T07:31:51.325Z,100852.53
2022-12-09T07:34:19.578Z,100830.31
2022-12-09T07:36:48.187Z,100842.22
2022-12-09T07:39:18.013Z,100844.00
2022-12-09T07:41:49.173Z,100844.00
2022-12-09T07:44:17.994Z,100844.00
2022-12-09T07:46:46.268Z,100831.13
2022-12-09T07:49:15.100Z,100849.94
2022-12-09T07:51:44.157Z,100850.87
2022-12-09T07:54:20.422Z,100843.16
2022-12-09T07:56:48.971Z,100836.34
2022-12-09T07:59:17.727Z,100832.12
2022-12-09T08:01:48.686Z,100845.59
2022-12-09T08:04:17.240Z,100831.94
2022-12-09T08:06:45.684Z,100819.06
2022-12-09T08:09:14.837Z,100825.12
2022-12-09T08:11:43.523Z,100821.75
2022-12-09T08:14:13.376Z,100808.84
2022-12-09T08:16:43.585Z,100807.94
2022-12-09T08:19:13.304Z,100795.09
2022-12-09T08:21:42.396Z,100788.09
2022-12-09T08:24:12.844Z,100789.00
2022-12-09T08:26:42.168Z,100798.50
2022-12-09T08:29:12.287Z,100788.16
2022-12-09T08:31:43.177Z,100787.28
2022-12-09T08:34:12.208Z,100783.06
2022-12-09T08:36:40.840Z,100782.16
2022-12-09T08:39:10.824Z,100790.75
2022-12-09T08:41:40.155Z,100779.72
2022-12-09T08:44:14.500Z,100783.97
2022-12-09T08:46:45.592Z,100785.53
2022-12-09T08:49:22.440Z,100776.84
2022-12-09T08:51:53.592Z,100775.22
2022-12-09T08:54:22.329Z,100770.09
2022-12-09T08:56:52.545Z,100762.34
2022-12-09T08:59:21.695Z,100758.84
2022-12-09T09:01:50.414Z,100751.12
2022-12-09T09:04:20.595Z,100752.06
2022-12-09T09:06:51.397Z,100746.03
2022-12-09T09:09:21.413Z,100739.09
2022-12-09T09:11:50.347Z,100727.00
2022-12-09T09:14:18.554Z,100717.56
2022-12-09T09:16:47.179Z,100717.53
2022-12-09T09:19:20.661Z,100706.41
2022-12-09T09:21:49.143Z,100710.72
2022-12-09T09:24:25.952Z,100711.56
2022-12-09T09:26:54.300Z,100709.91
2022-12-09T09:29:24.764Z,100699.50
2022-12-09T09:31:55.006Z,100700.38
2022-12-09T09:34:25.915Z,100704.63
2022-12-09T09:36:55.801Z,100697.94
2022-12-09T09:39:24.174Z,100705.72
2022-12-09T09:41:56.519Z,100692.78
2022-12-09T09:44:33.902Z,100693.63
2022-12-09T09:47:18.043Z,100700.56
2022-12-09T09:49:51.724Z,100691.97
2022-12-09T09:52:23.303Z,100690.16
2022-12-09T09:54:52.644Z,100685.75
2022-12-09T09:57:43.883Z,100667.75
2022-12-09T10:00:28.844Z,100665.16
2022-12-09T10:03:00.850Z,100665.09
2022-12-09T10:05:31.043Z,100669.44
2022-12-09T10:08:34.921Z,100668.72
2022-12-09T10:11:15.226Z,100666.91
2022-12-09T10:13:56.478Z,100668.72
2022-12-09T10:16:45.624Z,100678.94
2022-12-09T10:19:32.739Z,100674.72
2022-12-09T10:22:20.712Z,100672.94
2022-12-09T10:25:22.171Z,100659.41
2022-12-09T10:28:05.152Z,100657.69
2022-12-09T10:30:41.689Z,100647.16
2022-12-09T10:33:21.551Z,100647.22
2022-12-09T10:35:50.346Z,100640.37
2022-12-09T10:38:20.277Z,100638.44
2022-12-09T10:40:50.514Z,100638.75
2022-12-09T10:43:36.370Z,100649.91
2022-12-09T10:46:19.490Z,100648.97
2022-12-09T10:48:56.523Z,100637.84
2022-12-09T10:51:30.199Z,100634.44
2022-12-09T10:54:04.296Z,100637.94
2022-12-09T10:56:35.868Z,100640.41
2022-12-09T10:59:24.885Z,100643.78
2022-12-09T11:01:52.932Z,100630.94
2022-12-09T11:04:33.986Z,100640.56
2022-12-09T11:07:08.066Z,100639.50
2022-12-09T11:09:39.985Z,100637.59
2022-12-09T11:12:20.410Z,100635.19
2022-12-09T11:14:54.882Z,100637.94
2022-12-09T11:17:35.995Z,100630.25
2022-12-09T11:20:07.894Z,100626.06
2022-12-09T11:22:42.363Z,100624.06
2022-12-09T11:25:14.051Z,100614.59
2022-12-09T11:27:49.594Z,100611.88
2022-12-09T11:30:28.954Z,100607.72
2022-12-09T11:33:15.365Z,100611.28
2022-12-09T11:35:43.736Z,100606.66
2022-12-09T11:38:42.635Z,100602.44
2022-12-09T11:41:43.439Z,100602.63
2022-12-09T11:44:27.223Z,100597.06
2022-12-09T11:47:05.036Z,100593.13
2022-12-09T11:49:39.699Z,100598.06
2022-12-09T11:52:25.065Z,100593.69
2022-12-09T11:55:12.545Z,100588.69
2022-12-09T11:57:46.977Z,100584.56
2022-12-09T12:00:18.751Z,100576.66
2022-12-09T12:02:58.162Z,100571.72
2022-12-09T12:05:43.201Z,100567.53
2022-12-09T12:08:39.758Z,100566.72
2022-12-09T12:11:15.261Z,100563.91
2022-12-09T12:13:50.145Z,100558.72
2022-12-09T12:16:40.177Z,100556.09
2022-12-09T12:19:17.469Z,100564.06
2022-12-09T12:22:07.984Z,100562.31
2022-12-09T12:24:54.977Z,100557.72
2022-12-09T12:27:31.586Z,100549.44
2022-12-09T12:30:14.197Z,100556.09
2022-12-09T12:36:23.412Z,100561.56
2022-12-09T12:39:22.882Z,100575.84
2022-12-09T12:42:00.108Z,100562.13
2022-12-09T12:44:55.720Z,100563.31
2022-12-09T12:47:39.212Z,100563.47
2022-12-09T12:50:28.902Z,100563.03
2022-12-09T12:53:02.633Z,100563.97
2022-12-09T12:56:01.520Z,100557.91
2022-12-09T12:58:48.417Z,100559.84
2022-12-09T13:01:22.759Z,100555.41
2022-12-09T13:04:00.939Z,100558.03
2022-12-09T13:07:07.691Z,100554.22
2022-12-09T13:10:14.545Z,100553.66
2022-12-09T13:12:55.530Z,100549.53
2022-12-09T13:15:45.879Z,100545.56
2022-12-09T13:18:19.680Z,100551.59
2022-12-09T13:20:51.424Z,100555.44
2022-12-09T13:23:49.591Z,100547.97
2022-12-09T13:26:43.508Z,100549.09
2022-12-09T13:29:39.306Z,100559.31
2022-12-09T13:32:22.477Z,100556.34
2022-12-09T13:34:58.845Z,100544.91
2022-12-09T13:37:45.352Z,100549.94
2022-12-09T13:40:25.115Z,100548.69
2022-12-09T13:43:07.935Z,100534.91
2022-12-09T13:45:46.759Z,100524.63
2022-12-09T13:48:17.985Z,100524.38
2022-12-09T13:50:59.759Z,100528.09
2022-12-09T13:53:55.322Z,100525.13
2022-12-09T13:56:25.421Z,100524.78
2022-12-09T13:59:39.545Z,100525.72
2022-12-09T14:02:31.901Z,100534.63
2022-12-09T14:05:06.708Z,100532.97
2022-12-09T14:07:47.872Z,100540.41
2022-12-09T14:10:48.475Z,100523.88
2022-12-09T14:13:24.964Z,100515.72
2022-12-09T14:16:28.336Z,100516.72
2022-12-09T14:18:57.318Z,100509.44
2022-12-09T14:21:31.762Z,100505.59
2022-12-09T14:24:09.223Z,100511.84
2022-12-09T14:26:48.052Z,100510.94
2022-12-09T14:29:52.945Z,100517.31
2022-12-09T14:32:27.420Z,100517.50
2022-12-09T14:35:10.465Z,100510.84
2022-12-09T14:37:57.182Z,100516.88
2022-12-09T14:40:43.156Z,100509.47
2022-12-09T14:43:40.219Z,100508.91
2022-12-09T14:46:34.241Z,100513.81
2022-12-09T14:49:12.706Z,100498.25
2022-12-09T14:51:52.938Z,100501.66
2022-12-09T14:54:35.228Z,100502.94
2022-12-09T14:57:17.554Z,100496.25
2022-12-09T14:59:53.314Z,100483.53
2022-12-09T15:02:24.723Z,100474.94
2022-12-09T15:04:54.804Z,100481.34
2022-12-09T15:07:26.033Z,100478.56
2022-12-09T15:09:59.239Z,100482.44
2022-12-09T15:12:38.219Z,100485.94
2022-12-09T15:15:08.609Z,100486.97
2022-12-09T15:17:46.699Z,100480.16
2022-12-09T15:20:31.235Z,100475.38
2022-12-09T15:23:08.262Z,100479.03
2022-12-09T15:25:48.980Z,100460.19
2022-12-09T15:28:26.566Z,100468.75
2022-12-09T15:31:27.006Z,100469.22
2022-12-09T15:34:01.254Z,100462.56
2022-12-09T15:36:32.025Z,100467.28
2022-12-09T15:39:07.658Z,100463.28
2022-12-09T15:42:02.523Z,100468.84
2022-12-09T15:44:37.863Z,100459.19
2022-12-09T15:47:11.707Z,100457.81
2022-12-09T15:49:52.936Z,100447.50
2022-12-09T15:52:27.953Z,100446.34
2022-12-09T15:54:56.677Z,100430.63
2022-12-09T15:57:27.358Z,100436.41
2022-12-09T15:59:58.717Z,100435.62
2022-12-09T16:02:30.784Z,100425.56
2022-12-09T16:05:03.832Z,100441.38
2022-12-09T16:07:35.003Z,100439.91
2022-12-09T16:10:16.775Z,100442.09
2022-12-09T16:12:45.838Z,100438.06
2022-12-09T16:15:34.991Z,100432.91
2022-12-09T16:18:04.210Z,100427.41
2022-12-09T16:20:36.097Z,100413.28
2022-12-09T16:23:06.137Z,100419.63
2022-12-09T16:25:46.315Z,100425.22
2022-12-09T16:28:22.656Z,100419.84
2022-12-09T16:30:53.920Z,100400.84
2022-12-09T16:33:24.622Z,100423.75
2022-12-09T16:36:05.146Z,100415.09
2022-12-09T16:38:35.038Z,100410.78
2022-12-09T16:41:11.965Z,100406.66
2022-12-09T16:43:55.596Z,100419.84
2022-12-09T16:46:37.170Z,100430.47
2022-12-09T16:49:06.998Z,100430.56
2022-12-09T16:51:35.665Z,100430.63
2022-12-09T16:54:04.035Z,100425.34
2022-12-09T16:56:33.027Z,100421.16
2022-12-09T16:59:01.419Z,100419.19
2022-12-09T17:01:35.052Z,100414.56
2022-12-09T17:04:22.328Z,100406.00
2022-12-09T17:06:50.183Z,100409.66
2022-12-09T17:09:19.284Z,100415.63
2022-12-09T17:11:49.227Z,100410.56
2022-12-09T17:14:18.603Z,100407.84
2022-12-09T17:16:52.778Z,100400.22
2022-12-09T17:19:22.534Z,100401.88
2022-12-09T17:21:52.448Z,100402.69
2022-12-09T17:24:21.239Z,100403.72
2022-12-09T17:26:49.153Z,100401.94
2022-12-09T17:29:17.317Z,100402.87
2022-12-09T17:31:45.204Z,100399.53
2022-12-09T17:34:16.036Z,100403.81
2022-12-09T17:36:44.226Z,100406.41
2022-12-09T17:39:15.885Z,100403.78
2022-12-09T17:41:44.091Z,100398.66
2022-12-09T17:44:11.929Z,100399.56
2022-12-09T17:46:39.718Z,100403.75
2022-12-09T17:49:07.712Z,100411.44
2022-12-09T17:51:36.507Z,100414.91
2022-12-09T17:54:05.469Z,100400.31
2022-12-09T17:56:34.578Z,100414.81
2022-12-09T17:59:07.671Z,100417.41
2022-12-09T18:01:37.097Z,100403.63
2022-12-09T18:04:09.831Z,100392.50
2022-12-09T18:06:43.537Z,100389.09
2022-12-09T18:09:14.625Z,100383.06
2022-12-09T18:11:46.154Z,100381.38
2022-12-09T18:14:15.398Z,100386.53
2022-12-09T18:16:43.265Z,100388.22
2022-12-09T18:19:15.515Z,100385.63
2022-12-09T18:21:45.054Z,100377.06
2022-12-09T18:24:13.554Z,100375.34
2022-12-09T18:26:45.375Z,100366.78
2022-12-09T18:29:14.340Z,100367.56
2022-12-09T18:31:46.156Z,100353.84
2022-12-09T18:34:14.864Z,100369.28
2022-12-09T18:36:42.677Z,100359.00
2022-12-09T18:39:10.553Z,100367.53
2022-12-09T18:41:38.786Z,100357.12
2022-12-09T18:44:08.268Z,100355.50
2022-12-09T18:46:39.264Z,100356.22
2022-12-09T18:49:13.031Z,100351.09
2022-12-09T18:51:42.525Z,100350.34
2022-12-09T18:54:17.258Z,100350.28
2022-12-09T18:56:45.895Z,100357.19
2022-12-09T18:59:14.284Z,100349.44
2022-12-09T19:01:45.206Z,100346.03
2022-12-09T19:04:16.553Z,100340.91
2022-12-09T19:06:46.912Z,100334.03
2022-12-09T19:09:23.694Z,100333.19
2022-12-09T19:11:53.227Z,100338.34
2022-12-09T19:14:22.894Z,100336.59
2022-12-09T19:16:52.606Z,100333.09
2022-12-09T19:19:23.279Z,100338.31
2022-12-09T19:21:53.218Z,100346.00
2022-12-09T19:24:30.396Z,100340.88
2022-12-09T19:26:58.504Z,100349.44
2022-12-09T19:29:28.249Z,100351.09
2022-12-09T19:31:59.801Z,100349.41
2022-12-09T19:34:29.989Z,100342.56
2022-12-09T19:37:00.764Z,100340.00
2022-12-09T19:39:31.678Z,100343.47
2022-12-09T19:42:00.306Z,100349.50
2022-12-09T19:44:59.778Z,100352.03
2022-12-09T19:47:17.773Z,100342.56
2022-12-09T19:49:45.961Z,100335.75
2022-12-09T19:52:14.248Z,100337.47
2022-12-09T19:54:42.180Z,100336.56
2022-12-09T19:57:10.956Z,100339.13
2022-12-09T19:59:38.765Z,100334.81
2022-12-09T20:02:12.709Z,100334.81
2022-12-09T20:04:51.379Z,100316.03
2022-12-09T20:07:20.453Z,100320.22
2022-12-09T20:09:49.313Z,100310.78
2022-12-09T20:12:17.235Z,100308.22
2022-12-09T20:14:48.368Z,100306.53
2022-12-09T20:17:17.714Z,100297.13
2022-12-09T20:19:45.464Z,100295.38
2022-12-09T20:22:13.150Z,100306.44
2022-12-09T20:24:41.545Z,100320.06
2022-12-09T20:27:09.495Z,100315.81
2022-12-09T20:29:38.500Z,100310.69
2022-12-09T20:32:08.786Z,100302.88
2022-12-09T20:34:38.001Z,100303.81
2022-12-09T20:37:07.963Z,100306.41
2022-12-09T20:39:39.788Z,100308.91
2022-12-09T20:42:11.865Z,100302.91
2022-12-09T20:44:52.042Z,100312.34
2022-12-09T20:47:30.070Z,100308.94
2022-12-09T20:50:01.465Z,100299.47
2022-12-09T20:52:41.875Z,100296.91
2022-12-09T20:55:10.934Z,100293.50
2022-12-09T20:57:43.574Z,100279.09
2022-12-09T21:00:15.408Z,100290.12
2022-12-09T21:02:44.398Z,100293.56
2022-12-09T21:05:12.191Z,100295.25
2022-12-09T21:07:40.099Z,100298.75
2022-12-09T21:10:09.066Z,100285.91
2022-12-09T21:12:37.048Z,100293.59
2022-12-09T21:15:05.249Z,100302.13
2022-12-09T21:17:33.496Z,100301.28
2022-12-09T21:20:01.964Z,100287.63
2022-12-09T21:22:31.783Z,100283.28
2022-12-09T21:24:59.962Z,100281.44
2022-12-09T21:27:27.700Z,100278.06
2022-12-09T21:29:55.498Z,100284.84
2022-12-09T21:32:23.950Z,100279.00
2022-12-09T21:34:51.640Z,100289.25
2022-12-09T21:37:19.504Z,100286.62
2022-12-09T21:39:48.058Z,100284.94
2022-12-09T21:42:16.013Z,100277.31
2022-12-09T21:44:43.688Z,100281.66
2022-12-09T21:47:11.938Z,100271.41
2022-12-09T21:49:39.750Z,100274.03
2022-12-09T21:52:07.653Z,100272.31
2022-12-09T21:54:35.923Z,100279.16
2022-12-09T21:57:11.221Z,100279.91
2022-12-09T21:59:42.618Z,100271.28
2022-12-09T22:02:11.577Z,100269.62
2022-12-09T22:04:39.824Z,100275.56
2022-12-09T22:07:07.652Z,100268.78
2022-12-09T22:09:35.716Z,100265.41
2022-12-09T22:12:04.274Z,100261.97
2022-12-09T22:14:32.030Z,100258.59
2022-12-09T22:17:00.986Z,100260.34
2022-12-09T22:19:29.465Z,100257.69
2022-12-09T22:21:57.371Z,100258.50
2022-12-09T22:24:25.284Z,100255.91
2022-12-09T22:26:53.487Z,100257.56
2022-12-09T22:29:21.587Z,100266.12
2022-12-09T22:31:49.379Z,100266.12
2022-12-09T22:34:20.053Z,100257.47
2022-12-09T22:36:49.764Z,100266.09
2022-12-09T22:39:21.930Z,100252.38
2022-12-09T22:41:50.253Z,100246.34
2022-12-09T22:44:20.071Z,100241.19
2022-12-09T22:46:48.454Z,100242.97
2022-12-09T22:49:16.964Z,100233.50
2022-12-09T22:51:46.312Z,100237.75
2022-12-09T22:54:15.064Z,100231.94
2022-12-09T22:56:44.075Z,100228.50
2022-12-09T22:59:15.051Z,100226.81
2022-12-09T23:01:45.918Z,100222.50
2022-12-09T23:04:22.084Z,100222.50
2022-12-09T23:06:50.853Z,100223.37
2022-12-09T23:09:25.454Z,100223.34
2022-12-09T23:11:53.494Z,100221.69
2022-12-09T23:14:21.728Z,100222.50
2022-12-09T23:16:49.922Z,100231.88
2022-12-09T23:19:18.070Z,100234.38
2022-12-09T23:21:46.153Z,100242.88
2022-12-09T23:24:22.625Z,100246.28
2022-12-09T23:26:56.097Z,100245.47
2022-12-09T23:29:24.366Z,100232.59
2022-12-09T23:31:52.136Z,100236.78
2022-12-09T23:34:20.770Z,100244.50
2022-12-09T23:36:51.563Z,100246.28
2022-12-09T23:39:19.800Z,100242.94
2022-12-09T23:41:51.008Z,100242.03
2022-12-09T23:44:19.347Z,100239.50
2022-12-09T23:46:47.232Z,100233.50
2022-12-09T23:49:16.312Z,100233.53
2022-12-09T23:51:44.516Z,100229.22
2022-12-09T23:54:14.923Z,100231.84
2022-12-09T23:56:48.263Z,100226.72
2022-12-09T23:59:18.170Z,100240.22
